Terminal Aerodrome Forecast
Issued by NWS

Home | Current Version | Previous Version | Text Only | Print | Product List | Glossary On
Versions: 1 2 3 4 5 6 7 8 9 10 11 12 13 14 15 16 17 18
000
FTUS46 KSGX 020543
TAFCRQ
TAF
KCRQ 020543Z 0206/0306 VRB03KT P6SM VCSH OVC050
     FM021600 VRB05KT P6SM -SHRA VCTS FEW015 SCT025CB BKN050
     FM021900 21011KT P6SM -SHRA VCTS SCT025CB BKN050
     FM030300 VRB03KT P6SM VCSH BKN050=

USA.gov is the U.S. government's official web portal to all federal, state and local government web resources and services.